createdAt,value
2018-07-30T00:00:19.301Z,1.20
2018-07-30T00:00:52.388Z,1.20
2018-07-30T00:01:25.376Z,1.20
2018-07-30T00:01:58.422Z,1.20
2018-07-30T00:02:37.045Z,1.30
2018-07-30T00:03:10.040Z,1.20
2018-07-30T00:03:43.007Z,1.20
2018-07-30T00:04:16.206Z,1.10
2018-07-30T00:04:49.194Z,1.20
2018-07-30T00:05:22.194Z,1.00
2018-07-30T00:05:55.368Z,1.20
2018-07-30T00:06:28.402Z,1.10
2018-07-30T00:07:01.402Z,0.90
2018-07-30T00:07:34.394Z,1.10
2018-07-30T00:08:07.425Z,1.10
2018-07-30T00:08:40.394Z,1.10
2018-07-30T00:09:13.426Z,1.10
2018-07-30T00:09:46.444Z,1.02
2018-07-30T00:10:19.412Z,1.10
2018-07-30T00:10:52.488Z,1.10
2018-07-30T00:11:26.011Z,1.20
2018-07-30T00:11:59.009Z,1.12
2018-07-30T00:12:32.045Z,1.05
2018-07-30T00:13:05.039Z,1.17
2018-07-30T00:13:38.095Z,1.20
2018-07-30T00:14:11.254Z,1.30
2018-07-30T00:14:44.215Z,1.20
2018-07-30T00:15:17.232Z,1.00
2018-07-30T00:15:50.246Z,1.10
2018-07-30T00:16:23.286Z,1.20
2018-07-30T00:16:56.379Z,1.30
2018-07-30T00:17:29.422Z,1.30
2018-07-30T00:18:02.510Z,1.40
2018-07-30T00:18:35.480Z,1.30
2018-07-30T00:19:08.456Z,1.30
2018-07-30T00:19:41.450Z,1.10
2018-07-30T00:20:14.477Z,1.10
2018-07-30T00:20:47.432Z,1.10
2018-07-30T00:21:20.423Z,1.00
2018-07-30T00:21:53.468Z,1.20
2018-07-30T00:22:26.542Z,1.17
2018-07-30T00:22:59.597Z,1.30
2018-07-30T00:23:32.610Z,1.10
2018-07-30T00:24:05.610Z,1.20
2018-07-30T00:24:39.470Z,1.30
2018-07-30T00:25:12.486Z,1.20
2018-07-30T00:25:45.462Z,1.40
2018-07-30T00:26:18.442Z,1.20
2018-07-30T00:26:51.442Z,1.10
2018-07-30T00:27:24.434Z,1.00
2018-07-30T00:27:57.424Z,1.10
2018-07-30T00:28:30.381Z,1.12
2018-07-30T00:29:03.418Z,1.20
2018-07-30T00:29:36.412Z,1.20
2018-07-30T00:30:09.410Z,1.20
2018-07-30T00:30:42.444Z,1.10
2018-07-30T00:31:15.442Z,1.17
2018-07-30T00:31:48.530Z,1.00
2018-07-30T00:32:21.555Z,1.20
2018-07-30T00:32:54.550Z,1.25
2018-07-30T00:33:27.535Z,1.27
2018-07-30T00:34:00.534Z,1.30
2018-07-30T00:34:33.516Z,1.17
2018-07-30T00:35:07.134Z,1.10
2018-07-30T00:35:40.124Z,1.10
2018-07-30T00:36:13.132Z,1.10
2018-07-30T00:36:46.251Z,1.02
2018-07-30T00:37:19.230Z,0.90
2018-07-30T00:37:52.242Z,1.20
2018-07-30T00:38:25.328Z,1.10
2018-07-30T00:38:58.338Z,1.10
2018-07-30T00:39:31.362Z,1.10
2018-07-30T00:40:04.553Z,1.20
2018-07-30T00:40:37.574Z,1.20
2018-07-30T00:41:10.586Z,1.15
2018-07-30T00:41:43.564Z,1.00
2018-07-30T00:42:16.530Z,1.12
2018-07-30T00:42:49.508Z,1.20
2018-07-30T00:43:22.478Z,1.00
2018-07-30T00:43:55.978Z,1.00
2018-07-30T00:44:29.004Z,0.90
2018-07-30T00:45:02.043Z,1.00
2018-07-30T00:45:35.059Z,1.00
2018-07-30T00:46:08.034Z,1.00
2018-07-30T00:46:41.040Z,1.00
2018-07-30T00:47:14.078Z,1.12
2018-07-30T00:47:47.050Z,1.20
2018-07-30T00:48:20.091Z,1.10
2018-07-30T00:48:53.174Z,1.00
2018-07-30T00:49:26.176Z,1.00
2018-07-30T00:49:59.187Z,1.12
2018-07-30T00:50:32.248Z,1.02
2018-07-30T00:51:05.364Z,1.15
2018-07-30T00:51:38.350Z,1.12
2018-07-30T00:52:11.332Z,1.10
2018-07-30T00:52:44.338Z,1.20
2018-07-30T00:53:17.302Z,0.90
2018-07-30T00:53:50.278Z,1.10
2018-07-30T00:54:23.263Z,1.20
2018-07-30T00:54:56.251Z,1.00
2018-07-30T00:55:29.202Z,1.00
2018-07-30T00:56:02.270Z,1.10
2018-07-30T00:56:35.272Z,1.05
2018-07-30T00:57:08.248Z,1.00
2018-07-30T00:57:41.222Z,1.20
2018-07-30T00:58:14.200Z,1.22
2018-07-30T00:58:47.492Z,1.20
2018-07-30T00:59:20.472Z,1.12
2018-07-30T00:59:53.779Z,1.20
2018-07-30T01:00:26.778Z,1.30
2018-07-30T01:00:59.808Z,1.30
2018-07-30T01:01:32.796Z,1.10
2018-07-30T01:02:05.886Z,1.00
2018-07-30T01:02:38.892Z,1.10
2018-07-30T01:03:11.866Z,1.07
2018-07-30T01:03:44.985Z,1.05
2018-07-30T01:04:17.992Z,1.10
2018-07-30T01:04:51.249Z,1.20
2018-07-30T01:05:24.210Z,1.10
2018-07-30T01:05:57.207Z,1.15
2018-07-30T01:06:30.192Z,1.00
2018-07-30T01:07:03.236Z,1.10
2018-07-30T01:07:36.268Z,1.20
2018-07-30T01:08:09.222Z,1.20
2018-07-30T01:08:42.200Z,1.10
2018-07-30T01:09:15.198Z,1.00
2018-07-30T01:09:48.182Z,1.20
2018-07-30T01:10:21.138Z,1.00
2018-07-30T01:10:54.135Z,1.10
2018-07-30T01:11:27.124Z,1.10
2018-07-30T01:12:00.126Z,1.12
2018-07-30T01:12:33.124Z,1.10
2018-07-30T01:13:06.184Z,1.20
2018-07-30T01:13:39.231Z,1.20
2018-07-30T01:14:14.947Z,1.00
2018-07-30T01:14:47.896Z,1.10
2018-07-30T01:15:20.860Z,0.95
2018-07-30T01:15:53.850Z,1.10
2018-07-30T01:16:26.804Z,1.10
2018-07-30T01:16:59.780Z,1.05
2018-07-30T01:17:32.755Z,1.10
2018-07-30T01:18:05.736Z,0.98
2018-07-30T01:18:38.694Z,1.10
2018-07-30T01:19:11.684Z,1.20
2018-07-30T01:19:44.730Z,1.20
2018-07-30T01:20:17.712Z,1.20
2018-07-30T01:20:50.730Z,1.20
2018-07-30T01:21:23.844Z,1.10
2018-07-30T01:21:56.844Z,1.20
2018-07-30T01:22:30.710Z,1.30
2018-07-30T01:23:03.750Z,1.17
2018-07-30T01:23:36.768Z,1.20
2018-07-30T01:24:09.758Z,1.30
2018-07-30T01:24:42.772Z,1.20
2018-07-30T01:25:15.832Z,1.10
2018-07-30T01:25:48.912Z,1.10
2018-07-30T01:26:26.880Z,1.20
2018-07-30T01:26:59.866Z,1.10
2018-07-30T01:27:32.948Z,1.00
2018-07-30T01:28:06.018Z,1.20
2018-07-30T01:28:39.033Z,0.98
2018-07-30T01:29:12.042Z,1.10
2018-07-30T01:29:45.053Z,1.00
2018-07-30T01:30:18.080Z,1.20
2018-07-30T01:30:51.050Z,1.10
2018-07-30T01:31:24.050Z,1.05
2018-07-30T01:31:57.046Z,1.10
2018-07-30T01:32:30.066Z,1.10
2018-07-30T01:33:03.098Z,1.20
2018-07-30T01:33:36.071Z,1.20
2018-07-30T01:34:09.072Z,1.20
2018-07-30T01:34:42.040Z,1.20
2018-07-30T01:35:15.000Z,1.10
2018-07-30T01:35:47.970Z,1.30
2018-07-30T01:36:21.146Z,1.10
2018-07-30T01:36:54.137Z,1.30
2018-07-30T01:37:27.128Z,1.15
2018-07-30T01:38:00.090Z,1.10
2018-07-30T01:38:33.079Z,1.00
2018-07-30T01:39:07.400Z,1.02
2018-07-30T01:39:40.382Z,1.10
2018-07-30T01:40:13.515Z,1.10
2018-07-30T01:40:46.482Z,1.05
2018-07-30T01:41:19.750Z,1.00
2018-07-30T01:41:52.882Z,1.00
2018-07-30T01:42:25.910Z,1.10
2018-07-30T01:42:58.978Z,1.00
2018-07-30T01:43:33.078Z,1.00
2018-07-30T01:44:06.132Z,1.10
2018-07-30T01:44:39.062Z,1.10
2018-07-30T01:45:12.080Z,1.20
2018-07-30T01:45:45.094Z,1.20
2018-07-30T01:46:18.047Z,1.10
2018-07-30T01:46:51.026Z,1.10
2018-07-30T01:47:23.971Z,1.10
2018-07-30T01:47:56.944Z,1.07
2018-07-30T01:48:29.940Z,1.15
2018-07-30T01:49:02.952Z,1.10
2018-07-30T01:49:35.944Z,1.20
2018-07-30T01:50:08.903Z,1.27
2018-07-30T01:50:41.948Z,1.22
2018-07-30T01:51:14.986Z,1.10
2018-07-30T01:51:47.982Z,1.23
2018-07-30T01:52:21.002Z,1.20
2018-07-30T01:52:54.014Z,1.15
2018-07-30T01:53:27.621Z,1.00
2018-07-30T01:54:00.618Z,1.10
2018-07-30T01:54:33.640Z,1.10
2018-07-30T01:55:06.606Z,1.00
2018-07-30T01:55:39.634Z,1.20
2018-07-30T01:56:12.726Z,1.00
2018-07-30T01:56:45.726Z,1.10
2018-07-30T01:57:18.726Z,1.20
2018-07-30T01:57:51.724Z,1.00
2018-07-30T01:58:24.762Z,0.88
2018-07-30T01:58:57.772Z,1.10
2018-07-30T01:59:30.720Z,1.00
2018-07-30T02:00:04.559Z,1.00
2018-07-30T02:00:37.584Z,0.95
2018-07-30T02:01:10.726Z,1.00
2018-07-30T02:01:43.702Z,1.10
2018-07-30T02:02:16.696Z,1.00
2018-07-30T02:02:57.446Z,1.00
2018-07-30T02:03:30.468Z,1.30
2018-07-30T02:04:03.483Z,1.10
2018-07-30T02:04:36.472Z,1.10
2018-07-30T02:05:09.509Z,1.10
2018-07-30T02:05:42.487Z,1.10
2018-07-30T02:06:15.464Z,1.10
2018-07-30T02:06:48.479Z,1.15
2018-07-30T02:07:21.502Z,1.10
2018-07-30T02:07:54.474Z,1.27
2018-07-30T02:08:27.518Z,1.25
2018-07-30T02:09:00.508Z,1.17
2018-07-30T02:09:33.552Z,1.22
2018-07-30T02:10:08.109Z,1.30
2018-07-30T02:10:41.094Z,1.20
2018-07-30T02:11:14.094Z,1.40
2018-07-30T02:11:47.134Z,1.20
2018-07-30T02:12:20.170Z,1.30
2018-07-30T02:12:53.118Z,1.30
2018-07-30T02:14:14.588Z,1.30
2018-07-30T02:14:47.636Z,1.10
2018-07-30T02:15:20.648Z,1.20
2018-07-30T02:15:53.727Z,1.25
2018-07-30T02:16:26.824Z,1.30
2018-07-30T02:16:59.784Z,1.20
2018-07-30T02:17:32.906Z,1.30
2018-07-30T02:18:06.086Z,1.17
2018-07-30T02:18:39.068Z,1.30
2018-07-30T02:19:12.058Z,1.30
2018-07-30T02:19:45.158Z,1.30
2018-07-30T02:20:18.168Z,1.10
2018-07-30T02:20:51.166Z,1.10
2018-07-30T02:21:24.154Z,1.00
2018-07-30T02:21:57.160Z,1.10
2018-07-30T02:22:30.150Z,1.10
2018-07-30T02:23:03.219Z,1.20
2018-07-30T02:23:36.206Z,1.15
2018-07-30T02:24:09.220Z,1.00
2018-07-30T02:24:42.234Z,1.00
2018-07-30T02:25:15.243Z,1.00
2018-07-30T02:25:48.328Z,0.98
2018-07-30T02:26:21.330Z,1.02
2018-07-30T02:26:54.332Z,0.90
2018-07-30T02:27:27.307Z,1.00
2018-07-30T02:28:00.303Z,1.00
2018-07-30T02:28:33.366Z,1.07
2018-07-30T02:29:06.416Z,1.02
2018-07-30T02:29:39.432Z,1.17
2018-07-30T02:30:12.399Z,1.12
2018-07-30T02:30:45.353Z,1.00
2018-07-30T02:31:18.323Z,1.05
2018-07-30T02:31:51.356Z,1.10
2018-07-30T02:32:24.306Z,1.20
2018-07-30T02:32:57.307Z,1.25
2018-07-30T02:33:30.401Z,1.20
2018-07-30T02:34:03.441Z,1.10
2018-07-30T02:34:36.467Z,1.10
2018-07-30T02:35:09.786Z,1.20
2018-07-30T02:35:42.799Z,1.10
2018-07-30T02:36:15.802Z,1.20
2018-07-30T02:36:49.164Z,1.20
2018-07-30T02:37:22.221Z,1.20
2018-07-30T02:37:55.272Z,1.10
2018-07-30T02:38:28.290Z,1.00
2018-07-30T02:39:01.285Z,1.15
2018-07-30T02:39:34.386Z,1.25
2018-07-30T02:40:07.712Z,1.20
2018-07-30T02:40:40.746Z,1.10
2018-07-30T02:41:13.805Z,1.22
2018-07-30T02:41:46.831Z,1.20
2018-07-30T02:42:19.848Z,1.20
2018-07-30T02:42:52.903Z,1.20
2018-07-30T02:43:25.918Z,1.10
2018-07-30T02:43:58.936Z,1.20
2018-07-30T02:44:31.977Z,1.10
2018-07-30T02:45:05.811Z,1.00
2018-07-30T02:45:38.857Z,1.10
2018-07-30T02:46:11.936Z,1.20
2018-07-30T02:46:45.009Z,1.20
2018-07-30T02:47:18.029Z,1.30
2018-07-30T02:47:51.014Z,1.27
2018-07-30T02:48:23.996Z,1.20
2018-07-30T02:48:56.975Z,1.00
2018-07-30T02:49:29.964Z,1.27
2018-07-30T02:50:03.464Z,1.20
2018-07-30T02:50:36.487Z,1.20
2018-07-30T02:51:09.633Z,1.20
2018-07-30T02:51:42.658Z,1.20
2018-07-30T02:52:15.705Z,1.30
2018-07-30T02:52:48.731Z,1.00
2018-07-30T02:53:21.765Z,1.20
2018-07-30T02:53:54.779Z,1.20
2018-07-30T02:54:27.748Z,1.00
2018-07-30T02:55:00.767Z,1.10
2018-07-30T02:55:33.749Z,1.30
2018-07-30T02:56:06.788Z,1.12
2018-07-30T02:56:39.778Z,1.20
2018-07-30T02:57:12.860Z,1.20
2018-07-30T02:57:46.002Z,1.00
2018-07-30T02:58:18.909Z,1.10
2018-07-30T02:58:52.251Z,1.20
2018-07-30T02:59:25.226Z,1.20
2018-07-30T02:59:58.218Z,1.00
2018-07-30T03:00:31.226Z,0.98
2018-07-30T03:01:04.270Z,1.10
2018-07-30T03:01:37.269Z,1.10
2018-07-30T03:02:10.266Z,1.20
2018-07-30T03:02:43.326Z,1.10
2018-07-30T03:03:16.330Z,1.10
2018-07-30T03:03:49.364Z,1.20
2018-07-30T03:04:22.388Z,1.10
2018-07-30T03:04:55.410Z,1.10
2018-07-30T03:05:28.415Z,1.20
2018-07-30T03:06:01.427Z,1.12
2018-07-30T03:06:34.429Z,1.10
2018-07-30T03:07:07.479Z,1.20
2018-07-30T03:07:40.468Z,1.22
2018-07-30T03:08:13.457Z,1.10
2018-07-30T03:08:46.448Z,1.20
2018-07-30T03:09:19.523Z,1.22
2018-07-30T03:09:52.610Z,0.98
2018-07-30T03:10:25.750Z,1.30
2018-07-30T03:10:58.735Z,1.12
2018-07-30T03:11:31.740Z,1.30
2018-07-30T03:12:04.916Z,1.20
2018-07-30T03:12:37.892Z,1.10
2018-07-30T03:13:10.903Z,1.20
2018-07-30T03:13:43.972Z,1.00
2018-07-30T03:14:17.313Z,1.00
2018-07-30T03:14:50.330Z,1.00
2018-07-30T03:15:23.355Z,1.10
2018-07-30T03:15:56.335Z,1.00
2018-07-30T03:16:29.322Z,1.10
2018-07-30T03:17:02.373Z,1.17
2018-07-30T03:17:35.379Z,1.10
2018-07-30T03:18:08.365Z,1.10
2018-07-30T03:18:41.350Z,1.07
2018-07-30T03:19:14.440Z,1.10
2018-07-30T03:19:47.494Z,1.20
2018-07-30T03:20:20.479Z,1.22
2018-07-30T03:20:53.600Z,1.20
2018-07-30T03:21:26.619Z,1.00
2018-07-30T03:21:59.625Z,1.10
2018-07-30T03:22:32.622Z,0.90
2018-07-30T03:23:05.725Z,0.93
2018-07-30T03:23:38.684Z,1.00
2018-07-30T03:24:11.762Z,1.10
2018-07-30T03:24:44.799Z,1.10
2018-07-30T03:25:17.803Z,1.10
2018-07-30T03:25:50.820Z,1.00
2018-07-30T03:26:23.882Z,1.10
2018-07-30T03:26:56.847Z,1.20
2018-07-30T03:27:29.934Z,1.20
2018-07-30T03:28:02.935Z,1.10
2018-07-30T03:28:35.943Z,1.00
2018-07-30T03:29:08.952Z,1.20
2018-07-30T03:29:41.901Z,1.30
2018-07-30T03:30:14.924Z,1.00
2018-07-30T03:30:47.975Z,1.10
2018-07-30T03:31:21.097Z,1.17
2018-07-30T03:31:54.111Z,1.30
2018-07-30T03:32:27.105Z,1.20
2018-07-30T03:33:02.335Z,1.22
2018-07-30T03:33:35.384Z,1.12
2018-07-30T03:34:08.393Z,1.20
2018-07-30T03:36:10.963Z,1.15
2018-07-30T03:36:44.001Z,1.10
2018-07-30T03:37:17.006Z,1.20
2018-07-30T03:37:50.047Z,1.10
2018-07-30T03:38:23.092Z,1.10
2018-07-30T03:38:56.085Z,1.20
2018-07-30T03:39:29.102Z,1.10
2018-07-30T03:40:02.461Z,1.15
2018-07-30T03:40:35.483Z,1.20
2018-07-30T03:41:08.635Z,1.00
2018-07-30T03:41:41.712Z,1.00
2018-07-30T03:42:14.726Z,1.02
2018-07-30T03:42:47.740Z,1.20
2018-07-30T03:43:20.843Z,1.10
2018-07-30T03:43:53.951Z,1.10
2018-07-30T03:44:27.001Z,1.10
2018-07-30T03:44:59.993Z,1.30
2018-07-30T03:45:33.013Z,1.20
2018-07-30T03:46:06.487Z,1.20
2018-07-30T03:46:39.513Z,1.20
2018-07-30T03:47:12.572Z,1.20
2018-07-30T03:47:45.603Z,1.20
2018-07-30T03:48:18.597Z,1.25
2018-07-30T03:48:51.608Z,1.10
2018-07-30T03:49:24.906Z,1.10
2018-07-30T03:49:57.927Z,1.20
2018-07-30T03:50:31.022Z,1.20
2018-07-30T03:51:04.021Z,1.20
2018-07-30T03:51:37.009Z,1.20
2018-07-30T03:52:10.033Z,1.07
2018-07-30T03:52:44.145Z,1.20
2018-07-30T03:53:17.177Z,1.10
2018-07-30T03:53:50.233Z,1.10
2018-07-30T03:54:23.240Z,1.32
2018-07-30T03:54:56.228Z,1.30
2018-07-30T03:55:29.249Z,1.30
2018-07-30T03:56:02.257Z,1.20
2018-07-30T03:56:35.263Z,1.20
2018-07-30T03:57:08.286Z,1.27
2018-07-30T03:57:41.248Z,1.00
2018-07-30T03:58:14.291Z,1.17
2018-07-30T03:58:47.284Z,1.20
2018-07-30T03:59:20.324Z,1.27
2018-07-30T03:59:53.312Z,1.20
2018-07-30T04:00:26.379Z,1.12
2018-07-30T04:00:59.374Z,1.20
2018-07-30T04:01:32.414Z,1.10
2018-07-30T04:02:05.491Z,1.07
2018-07-30T04:02:38.576Z,1.30
2018-07-30T04:03:11.586Z,1.20
2018-07-30T04:03:44.578Z,1.30
2018-07-30T04:04:17.594Z,1.10
2018-07-30T04:04:50.642Z,1.10
2018-07-30T04:05:23.638Z,1.20
2018-07-30T04:05:56.603Z,1.22
2018-07-30T04:06:29.656Z,1.10
2018-07-30T04:07:02.633Z,1.27
2018-07-30T04:07:35.822Z,1.15
2018-07-30T04:08:08.839Z,1.20
2018-07-30T04:08:41.899Z,1.10
2018-07-30T04:09:14.926Z,1.20
2018-07-30T04:09:48.211Z,1.25
2018-07-30T04:10:21.223Z,1.35
2018-07-30T04:10:54.215Z,1.30
2018-07-30T04:11:27.222Z,1.20
2018-07-30T04:12:00.222Z,1.10
2018-07-30T04:12:33.222Z,1.02
2018-07-30T04:13:06.401Z,1.10
2018-07-30T04:13:39.341Z,1.30
2018-07-30T04:14:12.333Z,1.22
2018-07-30T04:14:45.396Z,1.30
2018-07-30T04:15:18.382Z,1.30
2018-07-30T04:15:51.401Z,1.30
2018-07-30T04:16:24.403Z,1.40
2018-07-30T04:16:57.402Z,1.20
2018-07-30T04:17:30.408Z,1.30
2018-07-30T04:18:03.415Z,1.30
2018-07-30T04:18:36.407Z,1.20
2018-07-30T04:19:09.703Z,1.27
2018-07-30T04:19:42.710Z,1.20
2018-07-30T04:20:15.706Z,1.27
2018-07-30T04:20:48.732Z,1.30
2018-07-30T04:21:21.704Z,1.40
2018-07-30T04:21:55.113Z,1.20
2018-07-30T04:22:28.109Z,1.40
2018-07-30T04:23:01.099Z,1.20
2018-07-30T04:23:34.090Z,1.17
2018-07-30T04:24:07.065Z,1.10
2018-07-30T04:24:40.031Z,1.10
2018-07-30T04:25:13.038Z,1.20
2018-07-30T04:25:46.049Z,1.20
2018-07-30T04:26:19.128Z,1.10
2018-07-30T04:26:52.140Z,1.10
2018-07-30T04:27:25.157Z,1.30
2018-07-30T04:27:58.199Z,1.40
2018-07-30T04:28:31.226Z,1.10
2018-07-30T04:29:04.340Z,1.17
2018-07-30T04:29:37.332Z,1.10
2018-07-30T04:30:10.362Z,1.20
2018-07-30T04:30:43.436Z,1.10
2018-07-30T04:31:16.414Z,1.20
2018-07-30T04:31:49.496Z,1.10
2018-07-30T04:32:22.488Z,1.10
2018-07-30T04:32:55.460Z,1.10
2018-07-30T04:33:28.444Z,1.07
2018-07-30T04:34:01.517Z,1.10
2018-07-30T04:34:34.524Z,1.10
2018-07-30T04:35:07.550Z,1.10
2018-07-30T04:35:40.522Z,1.10
2018-07-30T04:36:13.488Z,1.10
2018-07-30T04:36:46.496Z,1.10
2018-07-30T04:37:19.494Z,1.10
2018-07-30T04:37:52.473Z,1.30
2018-07-30T04:38:25.472Z,1.40
2018-07-30T04:38:58.442Z,1.30
2018-07-30T04:39:31.374Z,1.20
2018-07-30T04:40:04.450Z,1.10
2018-07-30T04:40:37.432Z,1.30
2018-07-30T04:41:10.446Z,1.15
2018-07-30T04:41:43.920Z,1.30
2018-07-30T04:42:16.956Z,1.20
2018-07-30T04:42:49.979Z,1.10
2018-07-30T04:43:22.940Z,1.20
2018-07-30T04:43:55.922Z,1.22
2018-07-30T04:44:28.952Z,1.20
2018-07-30T04:45:01.972Z,1.20
2018-07-30T04:45:35.045Z,1.00
2018-07-30T04:46:08.036Z,1.00
2018-07-30T04:46:41.084Z,1.10
2018-07-30T04:47:14.074Z,1.05
2018-07-30T04:47:47.150Z,1.20
2018-07-30T04:48:21.106Z,1.30
2018-07-30T04:48:54.195Z,1.20
2018-07-30T04:49:27.788Z,1.10
2018-07-30T04:50:00.770Z,1.20
2018-07-30T04:50:33.783Z,1.25
2018-07-30T04:51:07.079Z,1.30
2018-07-30T04:51:40.091Z,1.30
2018-07-30T04:52:13.078Z,1.22
2018-07-30T04:52:46.084Z,1.30
2018-07-30T04:53:19.062Z,1.37
2018-07-30T04:53:52.070Z,1.10
2018-07-30T04:54:25.080Z,1.30
2018-07-30T04:54:58.060Z,1.30
2018-07-30T04:55:31.099Z,1.27
2018-07-30T04:56:04.110Z,1.20
2018-07-30T04:56:37.056Z,1.30
2018-07-30T04:57:10.055Z,1.50
2018-07-30T04:57:43.117Z,1.30
2018-07-30T04:58:16.113Z,1.40
2018-07-30T04:58:49.104Z,1.40
2018-07-30T04:59:22.112Z,1.20
2018-07-30T04:59:55.171Z,1.20
2018-07-30T05:00:28.190Z,1.02
2018-07-30T05:01:01.445Z,1.17
2018-07-30T05:01:34.468Z,1.30
2018-07-30T05:02:07.483Z,1.20
2018-07-30T05:02:40.485Z,1.20
2018-07-30T05:03:13.517Z,1.40
2018-07-30T05:03:46.541Z,1.30
2018-07-30T05:04:19.536Z,1.30
2018-07-30T05:04:52.511Z,1.25
2018-07-30T05:05:25.499Z,1.40
2018-07-30T05:05:58.489Z,1.30
2018-07-30T05:06:31.488Z,1.20
2018-07-30T05:07:04.635Z,1.32
2018-07-30T05:07:37.641Z,1.40
2018-07-30T05:08:10.625Z,1.22
2018-07-30T05:08:43.621Z,1.40
2018-07-30T05:09:16.617Z,1.30
2018-07-30T05:09:49.699Z,1.20
2018-07-30T05:10:22.690Z,1.20
2018-07-30T05:10:55.684Z,1.12
2018-07-30T05:11:28.698Z,1.40
2018-07-30T05:12:01.677Z,1.30
2018-07-30T05:12:34.677Z,1.30
2018-07-30T05:13:08.095Z,1.10
2018-07-30T05:13:41.073Z,1.20
2018-07-30T05:14:14.056Z,1.17
2018-07-30T05:14:47.047Z,1.35
2018-07-30T05:15:20.061Z,1.35
2018-07-30T05:15:53.039Z,1.32
2018-07-30T05:16:26.032Z,1.40
2018-07-30T05:16:59.152Z,1.50
2018-07-30T05:17:32.174Z,1.35
2018-07-30T05:18:05.199Z,1.32
2018-07-30T05:18:38.177Z,1.40
2018-07-30T05:19:11.173Z,1.50
2018-07-30T05:19:44.161Z,1.30
2018-07-30T05:20:17.181Z,1.30
2018-07-30T05:20:50.156Z,1.35
2018-07-30T05:21:23.201Z,1.50
2018-07-30T05:21:56.178Z,1.45
2018-07-30T05:22:29.143Z,1.40
2018-07-30T05:23:02.133Z,1.40
2018-07-30T05:23:35.122Z,1.50
2018-07-30T05:24:08.535Z,1.47
2018-07-30T05:24:41.611Z,1.30
2018-07-30T05:25:14.628Z,1.40
2018-07-30T05:25:47.712Z,1.30
2018-07-30T05:26:20.687Z,1.50
2018-07-30T05:26:53.693Z,1.50
2018-07-30T05:27:26.667Z,1.40
2018-07-30T05:27:59.681Z,1.30
2018-07-30T05:28:32.687Z,1.27
2018-07-30T05:29:05.691Z,1.30
2018-07-30T05:29:39.031Z,1.27
2018-07-30T05:30:11.995Z,1.30
2018-07-30T05:30:44.951Z,1.57
2018-07-30T05:31:17.948Z,1.37
2018-07-30T05:31:50.981Z,1.30
2018-07-30T05:33:27.592Z,1.40
2018-07-30T05:34:00.575Z,1.30
2018-07-30T05:34:33.611Z,1.30
2018-07-30T05:35:06.637Z,1.20
2018-07-30T05:35:39.897Z,1.22
2018-07-30T05:36:12.886Z,1.30
2018-07-30T05:36:45.884Z,1.30
2018-07-30T05:37:18.987Z,1.30
2018-07-30T05:37:51.951Z,1.30
2018-07-30T05:38:24.963Z,1.30
2018-07-30T05:38:57.967Z,1.40
2018-07-30T05:39:30.954Z,1.30
2018-07-30T05:40:04.331Z,1.40
2018-07-30T05:40:37.365Z,1.30
2018-07-30T05:41:10.410Z,1.30
2018-07-30T05:41:43.420Z,1.50
2018-07-30T05:42:16.471Z,1.50
2018-07-30T05:42:49.577Z,1.32
2018-07-30T05:43:22.586Z,1.40
2018-07-30T05:43:55.627Z,1.37
2018-07-30T05:44:28.607Z,1.35
2018-07-30T05:45:01.641Z,1.32
2018-07-30T05:45:34.696Z,1.55
2018-07-30T05:46:07.679Z,1.40
2018-07-30T05:46:40.673Z,1.42
2018-07-30T05:47:13.677Z,1.37
2018-07-30T05:47:46.623Z,1.40
2018-07-30T05:48:19.591Z,1.40
2018-07-30T05:48:52.531Z,1.40
2018-07-30T05:49:25.507Z,1.30
2018-07-30T05:49:58.507Z,1.50
2018-07-30T05:50:31.528Z,1.40
2018-07-30T05:51:04.543Z,1.50
2018-07-30T05:51:37.537Z,1.42
2018-07-30T05:52:10.554Z,1.40
2018-07-30T05:52:43.556Z,1.32
2018-07-30T05:53:16.565Z,1.45
2018-07-30T05:53:49.558Z,1.50
2018-07-30T05:54:22.550Z,1.40
2018-07-30T05:54:55.542Z,1.40
2018-07-30T05:55:28.514Z,1.30
2018-07-30T05:56:01.595Z,1.50
2018-07-30T05:56:34.600Z,1.60
2018-07-30T05:57:07.815Z,1.27
2018-07-30T05:57:40.790Z,1.40
2018-07-30T05:58:13.753Z,1.50
2018-07-30T05:58:46.684Z,1.40
2018-07-30T05:59:19.724Z,1.40
2018-07-30T05:59:52.757Z,1.42
2018-07-30T06:00:25.650Z,1.45
2018-07-30T06:00:58.614Z,1.37
2018-07-30T06:01:31.609Z,1.30
2018-07-30T06:02:04.678Z,1.50
2018-07-30T06:02:37.703Z,1.50
2018-07-30T06:03:10.703Z,1.25
2018-07-30T06:03:43.683Z,1.30
2018-07-30T06:04:16.661Z,1.20
2018-07-30T06:04:49.696Z,1.40
2018-07-30T06:05:22.735Z,1.40
2018-07-30T06:05:55.758Z,1.50
2018-07-30T06:06:28.779Z,1.40
2018-07-30T06:07:01.798Z,1.40
2018-07-30T06:07:34.787Z,1.40
2018-07-30T06:08:07.809Z,1.40
2018-07-30T06:08:40.807Z,1.60
2018-07-30T06:09:13.799Z,1.40
2018-07-30T06:09:46.903Z,1.60
2018-07-30T06:10:19.879Z,1.45
2018-07-30T06:10:52.996Z,1.35
2018-07-30T06:11:26.015Z,1.40
2018-07-30T06:11:59.005Z,1.50
2018-07-30T06:12:31.971Z,1.40
2018-07-30T06:13:05.009Z,1.60
2018-07-30T06:13:38.230Z,1.22
2018-07-30T06:14:11.249Z,1.40
2018-07-30T06:14:44.199Z,1.30
2018-07-30T06:15:17.163Z,1.35
2018-07-30T06:15:50.127Z,1.30
2018-07-30T06:16:23.106Z,1.50
2018-07-30T06:16:56.047Z,1.45
2018-07-30T06:17:29.072Z,1.30
2018-07-30T06:18:02.027Z,1.40
2018-07-30T06:18:35.009Z,1.32
2018-07-30T06:19:08.002Z,1.40
2018-07-30T06:19:40.980Z,1.40
2018-07-30T06:20:14.050Z,1.47
2018-07-30T06:20:47.060Z,1.60
2018-07-30T06:21:20.050Z,1.45
2018-07-30T06:21:53.075Z,1.57
2018-07-30T06:22:26.057Z,1.42
2018-07-30T06:22:59.044Z,1.40
2018-07-30T06:23:32.047Z,1.40
2018-07-30T06:24:05.308Z,1.40
2018-07-30T06:24:38.305Z,1.52
2018-07-30T06:25:11.315Z,1.50
2018-07-30T06:25:44.395Z,1.40
2018-07-30T06:26:17.394Z,1.30
2018-07-30T06:26:50.405Z,1.27
2018-07-30T06:27:23.384Z,1.35
2018-07-30T06:27:56.446Z,1.40
2018-07-30T06:28:29.437Z,1.30
2018-07-30T06:29:02.509Z,1.50
2018-07-30T06:29:35.475Z,1.40
2018-07-30T06:30:08.513Z,1.40
2018-07-30T06:30:41.512Z,1.37
2018-07-30T06:31:14.503Z,1.50
2018-07-30T06:31:47.545Z,1.50
2018-07-30T06:32:20.499Z,1.40
2018-07-30T06:32:53.755Z,1.50
2018-07-30T06:33:26.734Z,1.60
2018-07-30T06:33:59.698Z,1.70
2018-07-30T06:34:32.650Z,1.60
2018-07-30T06:35:06.236Z,1.60
2018-07-30T06:35:39.239Z,1.60
2018-07-30T06:36:12.202Z,1.55
2018-07-30T06:36:45.287Z,1.70
2018-07-30T06:37:18.263Z,1.50
2018-07-30T06:37:51.260Z,1.50
2018-07-30T06:38:24.301Z,1.60
2018-07-30T06:38:57.228Z,1.65
2018-07-30T06:39:30.220Z,1.67
2018-07-30T06:40:03.377Z,1.60
2018-07-30T06:40:36.409Z,1.42
2018-07-30T06:41:09.440Z,1.50
2018-07-30T06:41:42.478Z,1.52
2018-07-30T06:42:15.541Z,1.52
2018-07-30T06:42:48.583Z,1.65
2018-07-30T06:43:21.578Z,1.60
2018-07-30T06:43:54.540Z,1.60
2018-07-30T06:44:27.541Z,1.60
2018-07-30T06:45:00.502Z,1.50
2018-07-30T06:45:33.479Z,1.60
2018-07-30T06:46:06.478Z,1.52
2018-07-30T06:46:39.444Z,1.60
2018-07-30T06:47:12.488Z,1.60
2018-07-30T06:47:45.491Z,1.60
2018-07-30T06:48:18.511Z,1.57
2018-07-30T06:48:51.570Z,1.50
2018-07-30T06:49:24.523Z,1.70
2018-07-30T06:49:57.599Z,1.67
2018-07-30T06:50:30.785Z,1.70
2018-07-30T06:51:03.802Z,1.62
2018-07-30T06:51:36.816Z,1.55
2018-07-30T06:52:09.800Z,1.50
2018-07-30T06:52:42.808Z,1.60
2018-07-30T06:53:15.846Z,1.60
2018-07-30T06:53:48.840Z,1.70
2018-07-30T06:54:21.847Z,1.70
2018-07-30T06:54:55.103Z,1.60
2018-07-30T06:55:28.097Z,1.70
2018-07-30T06:56:01.127Z,1.60
2018-07-30T06:56:34.106Z,1.52
2018-07-30T06:57:07.164Z,1.50
2018-07-30T06:57:40.170Z,1.67
2018-07-30T06:58:13.170Z,1.67
2018-07-30T06:58:46.166Z,1.60
2018-07-30T06:59:21.467Z,1.60
2018-07-30T06:59:54.443Z,1.77
2018-07-30T07:00:27.402Z,1.60
2018-07-30T07:01:00.397Z,1.55
2018-07-30T07:01:33.401Z,1.65
2018-07-30T07:02:06.394Z,1.60
2018-07-30T07:02:39.672Z,1.70
2018-07-30T07:03:12.675Z,1.52
2018-07-30T07:03:45.721Z,1.80
2018-07-30T07:04:18.721Z,1.67
2018-07-30T07:04:51.766Z,1.70
2018-07-30T07:05:24.743Z,1.70
2018-07-30T07:05:57.783Z,1.60
2018-07-30T07:06:30.781Z,1.60
2018-07-30T07:07:03.800Z,1.70
2018-07-30T07:07:36.798Z,1.67
2018-07-30T07:08:09.810Z,1.65
2018-07-30T07:08:42.869Z,1.62
2018-07-30T07:09:15.862Z,1.70
2018-07-30T07:09:48.880Z,1.70
2018-07-30T07:10:21.898Z,1.75
2018-07-30T07:10:54.978Z,1.60
2018-07-30T07:11:27.931Z,1.70
2018-07-30T07:12:01.011Z,1.65
2018-07-30T07:12:34.017Z,1.60
2018-07-30T07:13:07.023Z,1.60
2018-07-30T07:13:40.040Z,1.70
2018-07-30T07:14:13.011Z,1.62
2018-07-30T07:14:45.957Z,1.70
2018-07-30T07:15:19.035Z,1.80
2018-07-30T07:15:52.050Z,1.70
2018-07-30T07:16:25.087Z,1.60
2018-07-30T07:16:58.149Z,1.80
2018-07-30T07:17:31.127Z,1.60
2018-07-30T07:18:04.119Z,1.80
2018-07-30T07:18:37.151Z,1.57
2018-07-30T07:19:10.149Z,1.67
2018-07-30T07:19:43.126Z,1.70
2018-07-30T07:20:16.167Z,1.70
2018-07-30T07:20:49.154Z,1.67
2018-07-30T07:21:22.259Z,1.50
2018-07-30T07:21:55.198Z,1.50
2018-07-30T07:22:28.175Z,1.40
2018-07-30T07:23:01.150Z,1.70
2018-07-30T07:23:34.157Z,1.65